Latest Coastal Weather Observations for Centre Island

IDD60701

Issued at 12:55 pm CST Thursday 24 April 2014 (issued every 10 minutes, with the page automatically refreshed every 10 minutes)

About coastal observations | Map of coastal stations | Coastal observations for NT | Marine services | Other Formats
Station Details ID: 014703 Name: CENTRE ISLAND Lat: -15.74 Lon: 136.82 Height: 12.2 m
Data from the previous 72 hours. | See also: Recent months at Centre Island
Date/Time
CST
Temp

°C
Wind Pressure Rain
since 9am
mm
Weather Cloud Vis
km
Sea
Height
m
Swell
Dir
 
Speed
knots
Gust
knots
hPa Trend Height
m
Period
s
Dir
24/12:30pm 25.2 E 15 18 1008.6 - 5.8 - - - - - - -
24/12:00pm 24.9 ENE 12 16 1009.0 - 4.4 - - - - - - -
24/11:30am 25.7 E 15 23 1009.6 - 2.0 - - - - - - -
24/11:00am 25.9 E 15 19 1009.9 - 2.0 - - - - - - -
24/10:30am 25.7 ESE 15 18 1009.8 - 2.0 - - - - - - -
24/10:00am 25.4 E 18 21 1009.8 - 2.0 - - - - - - -
24/09:30am 25.2 E 20 25 1009.8 - 0.2 - - - - - - -
24/09:28am 25.4 E 20 25 1009.8 - 0.2 - - - - - - -
24/09:00am 25.4 SE 17 20 1009.5 - 38.2 - - - - - - -
24/08:30am 25.5 SE 20 23 1009.2 - 38.2 - - - - - - -
24/08:00am 25.4 SE 17 23 1008.9 - 38.2 - - - - - - -
24/07:30am 24.8 SE 17 19 1008.5 - 38.2 - - - - - - -
24/07:00am 24.5 SE 19 22 1008.3 - 38.0 - - - - - - -
24/06:30am 24.2 ESE 19 22 1008.0 - 37.8 - - - - - - -
24/06:00am 24.3 SE 19 22 1007.5 - 37.0 - - - - - - -
24/05:30am 24.7 ESE 17 20 1007.3 - 36.2 - - - - - - -
24/05:00am 24.6 SE 20 24 1007.2 - 36.2 - - - - - - -
24/04:30am 24.3 SE 19 23 1006.9 - 36.2 - - - - - - -
24/04:00am 24.4 SE 20 23 1007.2 - 36.2 - - - - - - -
24/03:30am 24.2 SE 19 22 1007.2 - 36.2 - - - - - - -
24/03:00am 24.3 SE 20 24 1007.0 - 36.2 - - - - - - -
24/02:30am 24.4 SE 20 24 1007.4 - 36.2 - - - - - - -
24/02:00am 24.5 SE 20 24 1007.9 - 36.2 - - - - - - -
24/01:30am 24.4 SSE 20 25 1008.4 - 36.2 - - - - - - -
24/01:00am 24.7 SE 21 25 1009.0 - 36.2 - - - - - - -
24/12:30am 24.4 SSE 19 23 1009.3 - 36.2 - - - - - - -
24/12:00am 24.4 SE 20 24 1009.5 - 36.2 - - - - - - -
 
Date/Time
CST
Temp

°C
Wind Pressure Rain
since 9am
mm
Weather Cloud Vis
km
Sea
Height
m
Swell
Dir
 
Speed
knots
Gust
knots
hPa Trend Height
m
Period
s
Dir
23/11:30pm 24.4 SE 20 24 1010.1 - 36.2 - - - - - - -
23/11:00pm 24.4 SE 21 24 1010.3 - 36.2 - - - - - - -
23/10:30pm 24.8 SE 21 25 1010.1 - 36.2 - - - - - - -
23/10:00pm 25.2 SE 21 24 1010.1 - 36.2 - - - - - - -
23/09:30pm 25.5 ESE 23 26 1010.2 - 36.2 - - - - - - -
23/09:00pm 25.3 ESE 23 27 1010.1 - 36.2 - - - - - - -
23/08:30pm 25.2 ESE 21 25 1010.1 - 36.2 - - - - - - -
23/08:00pm 25.1 SE 22 25 1009.9 - 36.2 - - - - - - -
23/07:30pm 24.9 ESE 20 23 1009.7 - 36.2 - - - - - - -
23/07:00pm 24.6 SE 22 27 1009.3 - 36.2 - - - - - - -
23/06:30pm 24.9 SE 22 25 1009.0 - 34.8 - - - - - - -
23/06:00pm 25.0 SE 18 21 1008.8 - 34.6 - - - - - - -
23/05:30pm 25.1 ESE 18 23 1008.9 - 34.4 - - - - - - -
23/05:00pm 25.1 SE 19 23 1008.6 - 34.0 - - - - - - -
23/04:30pm 25.0 SE 22 25 1008.4 - 34.0 - - - - - - -
23/04:00pm 24.7 SE 22 25 1008.2 - 34.0 - - - - - - -
23/03:30pm 24.7 SE 24 28 1008.5 - 33.8 - - - - - - -
23/03:00pm 24.6 SSE 24 29 1008.1 - 32.4 - - - - - - -
23/02:30pm 24.7 SE 26 30 1008.3 - 28.4 - - - - - - -
23/02:00pm 24.7 SE 26 31 1008.3 - 24.8 - - - - - - -
23/01:30pm 25.1 SE 24 28 1008.6 - 21.4 - - - - - - -
23/01:00pm 25.0 SE 24 31 1009.0 - 17.2 - - - - - - -
23/12:30pm 24.7 SE 25 30 1009.1 - 11.0 - - - - - - -
23/12:00pm 25.2 SE 23 26 1009.3 - 6.4 - - - - - - -
23/11:30am 25.4 SE 25 29 1010.1 - 4.8 - - - - - - -
23/11:00am 25.2 ESE 17 21 1010.9 - 4.6 - - - - - - -
23/10:30am 25.2 ESE 22 29 1011.4 - 4.6 - - - - - - -
23/10:22am 25.0 ESE 22 29 1011.5 - 4.4 - - - - - - -
23/10:00am 25.2 E 16 19 1011.7 - 2.6 - - - - - - -
23/09:30am 25.0 ESE 17 19 1011.5 - 0.6 - - - - - - -
23/09:00am 24.9 ESE 25 33 1011.0 - 60.8 - - - - - - -
23/08:30am 25.5 SE 25 31 1010.5 - 59.4 - - - - - - -
23/08:00am 25.3 SE 30 35 1010.1 - 55.2 - - - - - - -
23/07:54am 25.3 SE 32 35 1009.9 - 54.8 - - - - - - -
23/07:30am 25.1 SE 20 27 1010.3 - 49.2 - - - - - - -
23/07:00am 24.8 ESE 14 17 1010.1 - 47.6 - - - - - - -
23/06:30am 25.0 SE 10 14 1010.2 - 44.6 - - - - - - -
23/06:00am 24.4 ESE 10 13 1009.9 - 41.4 - - - - - - -
23/05:30am 24.8 ESE 13 15 1009.7 - 35.8 - - - - - - -
23/05:00am 24.9 ESE 11 13 1009.3 - 33.0 - - - - - - -
23/04:30am 24.6 E 13 16 1009.1 - 25.2 - - - - - - -
23/04:00am 24.5 E 17 21 1009.1 - 14.0 - - - - - - -
23/03:30am 25.2 ESE 16 21 1008.9 - 7.6 - - - - - - -
23/03:00am 26.2 S 11 13 1008.6 - 7.6 - - - - - - -
23/02:30am 26.8 E 8 9 1008.8 - 7.6 - - - - - - -
23/02:00am 26.9 E 11 13 1009.5 - 7.6 - - - - - - -
23/01:30am 27.0 E 13 15 1009.9 - 7.6 - - - - - - -
23/01:00am 26.8 E 14 17 1010.1 - 7.6 - - - - - - -
23/12:30am 26.5 E 11 14 1010.3 - 7.6 - - - - - - -
23/12:00am 26.7 E 13 17 1010.3 - 7.6 - - - - - - -
 
Date/Time
CST
Temp

°C
Wind Pressure Rain
since 9am
mm
Weather Cloud Vis
km
Sea
Height
m
Swell
Dir
 
Speed
knots
Gust
knots
hPa Trend Height
m
Period
s
Dir
22/11:30pm 26.8 E 13 15 1010.5 - 7.6 - - - - - - -
22/11:00pm 26.8 ENE 12 16 1010.7 - 7.6 - - - - - - -
22/10:30pm 26.9 E 16 19 1010.8 - 7.6 - - - - - - -
22/10:00pm 27.0 E 18 21 1010.6 - 7.6 - - - - - - -
22/09:30pm 26.8 E 15 19 1010.6 - 7.6 - - - - - - -
22/09:00pm 26.7 E 14 17 1010.8 - 7.6 - - - - - - -
22/08:30pm 26.6 E 13 15 1010.9 - 7.6 - - - - - - -
22/08:00pm 26.2 E 12 15 1011.2 - 7.6 - - - - - - -
22/07:30pm 25.5 ESE 14 17 1011.3 - 7.6 - - - - - - -
22/07:00pm 25.1 ESE 14 16 1011.1 - 7.2 - - - - - - -
22/06:30pm 25.3 ESE 18 21 1011.1 - 6.2 - - - - - - -
22/06:00pm 25.5 E 16 19 1010.9 - 5.6 - - - - - - -
22/05:30pm 26.1 E 20 24 1010.9 - 5.4 - - - - - - -
22/05:00pm 26.8 E 20 26 1010.5 - 5.2 - - - - - - -
22/04:30pm 27.5 E 21 25 1010.0 - 5.0 - - - - - - -
22/04:00pm 27.5 E 18 22 1009.8 - 5.0 - - - - - - -
22/03:30pm 27.2 E 19 22 1009.5 - 5.0 - - - - - - -
22/03:00pm 26.7 E 15 20 1009.3 - 5.0 - - - - - - -
22/02:30pm 26.4 E 21 27 1010.2 - 5.0 - - - - - - -
22/02:00pm 25.9 E 21 25 1010.4 - 5.0 - - - - - - -
22/01:30pm 26.8 ENE 21 27 1010.6 - 4.4 - - - - - - -
22/01:29pm 26.9 ENE 20 27 1010.6 - 4.4 - - - - - - -
22/01:00pm 27.5 E 17 20 1010.6 - 4.4 - - - - - - -
22/12:30pm 27.3 E 22 29 1011.1 - 3.8 - - - - - - -
22/12:26pm 27.8 ESE 18 29 1011.1 - 3.8 - - - - - - -
22/12:25pm 28.1 ESE 17 26 1011.1 - 3.8 - - - - - - -
22/12:00pm 27.9 E 11 15 1011.5 - 3.8 - - - - - - -
22/11:30am 25.9 E 15 21 1012.3 - 3.4 - - - - - - -
22/11:00am 29.6 ESE 12 15 1012.7 - 0.0 - - - - - - -
22/10:30am 29.1 ESE 12 15 1012.9 - 0.0 - - - - - - -
22/10:00am 29.4 ESE 15 17 1013.0 - 0.0 - - - - - - -
22/09:30am 29.0 ESE 15 18 1013.0 - 0.0 - - - - - - -
22/09:00am 28.5 SE 13 15 1012.5 - 1.6 - - - - - - -
22/08:30am 27.8 SE 14 16 1012.4 - 1.6 - - - - - - -
22/08:00am 27.5 SE 14 16 1012.1 - 1.6 - - - - - - -
22/07:30am 26.8 SSE 12 14 1011.7 - 1.6 - - - - - - -
22/07:00am 26.2 SSE 12 13 1011.4 - 1.6 - - - - - - -
22/06:30am 25.7 SSE 13 14 1011.3 - 1.6 - - - - - - -
22/06:00am 25.8 SSE 12 14 1011.0 - 1.6 - - - - - - -
22/05:30am 25.9 SSE 11 14 1011.0 - 1.6 - - - - - - -
22/05:00am 25.9 SSE 11 13 1010.9 - 1.6 - - - - - - -
22/04:30am 26.2 SSE 11 13 1010.8 - 1.6 - - - - - - -
22/04:00am 26.5 SE 11 13 1010.6 - 1.6 - - - - - - -
22/03:30am 26.5 SSE 10 12 1010.7 - 1.6 - - - - - - -
22/03:00am 26.5 SSE 10 12 1010.6 - 1.6 - - - - - - -
22/02:30am 26.8 SE 11 12 1010.8 - 1.6 - - - - - - -
22/02:00am 26.9 SE 10 12 1010.9 - 1.6 - - - - - - -
22/01:30am 26.8 SE 9 11 1011.3 - 1.6 - - - - - - -
22/01:00am 27.2 SE 9 11 1011.5 - 1.6 - - - - - - -
22/12:30am 27.2 SE 8 9 1011.7 - 1.6 - - - - - - -
22/12:00am 27.3 SE 9 11 1011.9 - 1.6 - - - - - - -
 
Date/Time
CST
Temp

°C
Wind Pressure Rain
since 9am
mm
Weather Cloud Vis
km
Sea
Height
m
Swell
Dir
 
Speed
knots
Gust
knots
hPa Trend Height
m
Period
s
Dir
21/11:30pm 27.9 SE 10 12 1012.1 - 1.6 - - - - - - -
21/11:00pm 28.3 ESE 11 13 1012.1 - 1.6 - - - - - - -
21/10:30pm 28.3 ESE 12 14 1012.2 - 1.6 - - - - - - -
21/10:00pm 28.2 E 11 14 1012.3 - 1.6 - - - - - - -
21/09:30pm 28.2 E 11 13 1012.5 - 1.6 - - - - - - -
21/09:00pm 28.3 E 11 13 1012.5 - 1.6 - - - - - - -
21/08:30pm 28.3 E 12 16 1012.4 - 1.6 - - - - - - -
21/08:00pm 28.4 E 13 15 1012.1 - 1.6 - - - - - - -
21/07:30pm 28.5 E 13 16 1012.0 - 1.6 - - - - - - -
21/07:00pm 28.6 E 13 16 1011.8 - 1.6 - - - - - - -
21/06:30pm 28.8 E 15 19 1011.6 - 1.6 - - - - - - -
21/06:00pm 29.0 E 16 19 1011.2 - 1.6 - - - - - - -
21/05:30pm 29.5 E 15 19 1011.2 - 1.6 - - - - - - -
21/05:00pm 30.2 E 14 18 1010.9 - 1.6 - - - - - - -
21/04:30pm 30.7 E 15 18 1010.7 - 1.6 - - - - - - -
21/04:00pm 31.2 E 14 18 1010.7 - 1.6 - - - - - - -
21/03:30pm 31.7 E 15 17 1010.5 - 1.6 - - - - - - -
21/03:00pm 31.6 E 14 18 1010.4 - 1.6 - - - - - - -
21/02:30pm 31.7 E 13 16 1010.6 - 1.6 - - - - - - -
21/02:00pm 31.6 E 13 16 1010.7 - 1.6 - - - - - - -
21/01:30pm 30.0 E 13 17 1010.8 - 1.4 - - - - - - -
21/01:00pm 25.9 ESE 20 28 1011.3 - 1.0 - - - - - - -

Other Formats:

Comma delimited format used in spreadsheet applications
http://www.bom.gov.au/fwo/IDD60701/IDD60701.94248.axf

JavaScript Object Notation format (JSON) in row-major order
http://www.bom.gov.au/fwo/IDD60701/IDD60701.94248.json